Time;durP1;ratioP1;P1;durP2;ratioP2;P2;SDS_P1;SDS_P2;PMS_P1;PMS_P2;Temp;Humidity;BMP_temperature;BMP_pressure;BME280_temperature;BME280_humidity;BME280_pressure;Samples;Min_cycle;Max_cycle;Signal;HPM_P1;HPM_P2
2024/03/01 00:01:38;;;;;;;57.80;20.73;;;;;;;-145.69;71.08;52359.22;5098282;28;20650;-82
2024/03/01 00:04:04;;;;;;;56.63;20.80;;;;;;;-145.69;71.15;52347.34;5116241;28;20205;-81
2024/03/01 00:06:31;;;;;;;53.83;20.93;;;;;;;-145.69;70.53;52359.22;5116451;28;20197;-82
2024/03/01 00:08:57;;;;;;;53.10;18.80;;;;;;;-145.69;70.55;52321.59;5115588;28;20193;-82
2024/03/01 00:11:24;;;;;;;57.17;20.43;;;;;;;-145.69;70.59;52347.34;5114817;28;20205;-82
2024/03/01 00:13:52;;;;;;;44.30;16.63;;;;;;;-145.69;70.39;52333.47;5115721;28;20238;-82
2024/03/01 00:16:19;;;;;;;44.53;17.57;;;;;;;-145.69;70.50;52343.38;5114932;28;20289;-81
2024/03/01 00:18:45;;;;;;;45.53;18.77;;;;;;;-145.69;70.67;52384.97;5116170;28;20225;-81
2024/03/01 00:21:13;;;;;;;55.90;19.87;;;;;;;-145.69;70.52;52367.16;5116074;28;20625;-80
2024/03/01 00:23:40;;;;;;;44.47;17.37;;;;;;;-145.69;70.38;52353.28;5115935;28;20197;-82
2024/03/01 00:26:08;;;;;;;38.90;15.93;;;;;;;-145.69;70.42;52361.22;5115556;28;20671;-81
2024/03/01 00:28:35;;;;;;;44.13;16.83;;;;;;;-145.69;70.14;52357.25;5115879;28;20205;-82
2024/03/01 00:31:04;;;;;;;44.23;18.30;;;;;;;-145.69;70.23;52349.31;5116222;28;20201;-82
2024/03/01 00:33:31;;;;;;;40.63;17.37;;;;;;;-145.69;70.58;52383.00;5116080;27;20202;-82
2024/03/01 00:35:57;;;;;;;46.93;17.27;;;;;;;-145.69;70.67;52329.53;5115537;28;20656;-81
2024/03/01 00:38:24;;;;;;;47.40;17.13;;;;;;;-145.69;71.00;52365.16;5115174;28;20202;-81
2024/03/01 00:40:50;;;;;;;45.47;18.33;;;;;;;-145.69;71.21;52309.72;5115415;28;20212;-82
2024/03/01 00:43:17;;;;;;;45.73;18.57;;;;;;;-145.69;70.93;52325.56;5113221;27;20194;-82
2024/03/01 00:45:44;;;;;;;50.97;18.97;;;;;;;-145.69;71.18;52363.19;5115669;28;20234;-82
2024/03/01 00:48:13;;;;;;;47.73;18.43;;;;;;;-145.69;71.05;52329.53;5113237;28;20196;-82
2024/03/01 00:50:41;;;;;;;42.60;16.27;;;;;;;-145.69;70.96;52359.22;5115335;28;20204;-82
2024/03/01 00:53:08;;;;;;;45.30;17.23;;;;;;;-145.69;70.98;52337.44;5115199;28;20201;-82
2024/03/01 00:55:35;;;;;;;49.43;18.20;;;;;;;-145.69;70.96;52369.13;5115049;28;20197;-82
2024/03/01 00:58:02;;;;;;;49.17;19.60;;;;;;;-145.69;70.87;52345.38;5115135;28;20194;-82
2024/03/01 01:00:29;;;;;;;60.43;19.33;;;;;;;-145.69;70.60;52357.25;5115257;28;20229;-82
2024/03/01 01:02:56;;;;;;;46.83;18.00;;;;;;;-145.69;70.50;52355.28;5114703;28;20209;-82
2024/03/01 01:05:24;;;;;;;44.40;18.10;;;;;;;-145.69;70.43;52349.31;5114631;28;20193;-82
2024/03/01 01:07:50;;;;;;;44.13;17.83;;;;;;;-145.69;70.01;52343.38;5114242;28;20189;-82
2024/03/01 01:10:17;;;;;;;49.33;19.07;;;;;;;-145.69;70.24;52331.50;5114577;28;20556;-82
2024/03/01 01:12:43;;;;;;;52.40;19.90;;;;;;;-145.69;70.11;52365.16;5115035;28;20200;-82
2024/03/01 01:15:10;;;;;;;45.87;17.77;;;;;;;-145.69;69.66;52345.38;5113775;28;20641;-82
2024/03/01 01:17:37;;;;;;;44.77;19.63;;;;;;;-145.69;69.59;52361.22;5114608;28;20251;-81
2024/03/01 01:20:04;;;;;;;60.07;19.73;;;;;;;-145.69;69.83;52369.13;5114509;28;20228;-81
2024/03/01 01:22:33;;;;;;;53.57;18.43;;;;;;;-145.69;69.22;52375.06;5114823;28;20254;-81
2024/03/01 01:25:00;;;;;;;48.30;18.43;;;;;;;-145.69;69.67;52349.31;5114820;28;20552;-82
2024/03/01 01:27:27;;;;;;;52.33;18.20;;;;;;;-145.69;69.17;52363.19;5114691;28;20656;-82
2024/03/01 01:29:53;;;;;;;44.90;17.77;;;;;;;-145.69;69.04;52359.22;5114736;28;20197;-81
2024/03/01 01:32:19;;;;;;;51.10;17.93;;;;;;;-145.69;69.59;52333.47;5114670;28;20200;-81
2024/03/01 01:34:46;;;;;;;48.27;18.07;;;;;;;-145.69;69.02;52309.72;5114156;28;20209;-81
2024/03/01 01:37:12;;;;;;;39.27;17.40;;;;;;;-145.69;68.91;52349.31;5113790;28;20205;-82
2024/03/01 01:39:40;;;;;;;42.97;17.43;;;;;;;-145.69;68.81;52390.91;5129760;27;20692;-81
2024/03/01 01:42:07;;;;;;;41.60;16.50;;;;;;;-145.69;68.83;52361.22;5114182;28;20549;-82
2024/03/01 01:44:33;;;;;;;38.77;15.47;;;;;;;-145.69;69.14;52361.22;5114263;27;20197;-82
2024/03/01 01:47:00;;;;;;;54.60;18.20;;;;;;;-145.69;69.67;52371.13;5114307;28;20679;-81
2024/03/01 01:49:28;;;;;;;40.53;17.23;;;;;;;-145.69;70.03;52371.13;5114207;28;20213;-81
2024/03/01 01:51:56;;;;;;;50.13;17.13;;;;;;;-145.69;69.73;52369.13;5113833;28;20233;-81
2024/03/01 01:54:24;;;;;;;43.10;16.53;;;;;;;-145.69;70.19;52369.13;5114209;28;20659;-81
2024/03/01 01:56:52;;;;;;;50.67;18.40;;;;;;;-145.69;70.73;52373.09;5114203;28;20220;-81
2024/03/01 01:59:19;;;;;;;52.33;18.17;;;;;;;-145.69;71.05;52355.28;5113951;28;20232;-80
2024/03/01 02:01:45;;;;;;;45.67;16.47;;;;;;;-145.69;70.77;52343.38;5114108;28;20258;-80
2024/03/01 02:04:12;;;;;;;48.90;16.97;;;;;;;-145.69;70.63;52347.34;5113638;28;20210;-81
2024/03/01 02:06:38;;;;;;;45.63;16.70;;;;;;;-145.69;71.13;52325.56;5114087;28;20208;-81
2024/03/01 02:09:13;;;;;;;42.33;17.50;;;;;;;-145.69;70.66;52333.47;5117408;27;20321;-81
2024/03/01 02:11:39;;;;;;;41.47;16.37;;;;;;;-145.69;70.69;52357.25;5113763;28;20811;-81
2024/03/01 02:14:09;;;;;;;41.40;15.97;;;;;;;-145.69;70.55;52325.56;5113660;28;20201;-80
2024/03/01 02:16:35;;;;;;;38.50;15.57;;;;;;;-145.69;70.38;52355.28;5113507;28;20202;-80
2024/03/01 02:19:02;;;;;;;37.23;14.17;;;;;;;-145.69;70.28;52365.16;5114007;28;20258;-80
2024/03/01 02:21:35;;;;;;;44.63;16.47;;;;;;;-145.69;69.99;52353.28;5113304;28;20246;-80
2024/03/01 02:24:04;;;;;;;44.53;17.57;;;;;;;-145.69;69.92;52361.22;5093366;28;20205;-80
2024/03/01 02:26:31;;;;;;;45.27;15.57;;;;;;;-145.69;70.05;52347.34;5093367;28;20284;-80
2024/03/01 02:28:58;;;;;;;44.43;16.83;;;;;;;-145.69;69.88;52341.41;5093185;28;20213;-81
2024/03/01 02:31:24;;;;;;;43.47;17.73;;;;;;;-145.69;69.62;52349.31;5092597;28;20209;-80
2024/03/01 02:33:50;;;;;;;44.67;15.33;;;;;;;-145.69;69.96;52337.44;5093295;28;20211;-81
2024/03/01 02:36:18;;;;;;;47.47;16.97;;;;;;;-145.69;69.47;52339.44;5093215;28;20198;-81
2024/03/01 02:38:44;;;;;;;44.47;16.17;;;;;;;-145.69;69.76;52353.28;5105221;28;20217;-81
2024/03/01 02:41:12;;;;;;;49.27;17.57;;;;;;;-145.69;69.89;52355.28;5113390;28;20537;-80
2024/03/01 02:43:38;;;;;;;56.70;18.63;;;;;;;-145.69;70.40;52291.91;5112700;27;20223;-81
2024/03/01 02:46:05;;;;;;;52.17;19.47;;;;;;;-145.69;70.70;52333.47;5113149;28;20220;-80
2024/03/01 02:48:31;;;;;;;48.07;16.63;;;;;;;-145.69;70.03;52321.59;5112999;28;20193;-81
2024/03/01 02:50:58;;;;;;;54.37;19.87;;;;;;;-145.69;70.35;52349.31;5112588;28;20217;-81
2024/03/01 02:53:24;;;;;;;56.53;19.73;;;;;;;-145.69;70.46;52335.47;5113478;28;20200;-82
2024/03/01 02:55:51;;;;;;;39.70;16.87;;;;;;;-145.69;70.13;52343.38;5112965;28;20197;-81
2024/03/01 02:58:19;;;;;;;43.33;16.40;;;;;;;-145.69;69.22;52363.19;5113037;28;20194;-83
2024/03/01 03:00:45;;;;;;;41.17;15.03;;;;;;;-145.69;69.33;52307.75;5112731;28;20714;-83
2024/03/01 03:03:11;;;;;;;40.80;14.50;;;;;;;-145.69;68.99;52329.53;5113075;28;20549;-83
2024/03/01 03:05:38;;;;;;;35.07;14.60;;;;;;;-145.69;69.46;52349.31;5112774;28;20197;-82
2024/03/01 03:08:05;;;;;;;40.87;14.63;;;;;;;-145.69;69.19;52390.91;5113469;28;20188;-83
2024/03/01 03:10:32;;;;;;;44.37;14.60;;;;;;;-145.69;69.04;52333.47;5112374;28;20647;-82
2024/03/01 03:13:00;;;;;;;43.20;16.27;;;;;;;-145.69;69.43;52357.25;5118872;28;20205;-81
2024/03/01 03:15:28;;;;;;;48.07;16.87;;;;;;;-145.69;70.01;52337.44;5120033;28;20201;-81
2024/03/01 03:17:54;;;;;;;48.47;14.70;;;;;;;-145.69;69.39;52345.38;5119911;28;20208;-82
2024/03/01 03:20:21;;;;;;;35.17;13.90;;;;;;;-145.69;70.12;52361.22;5119783;28;20228;-81
2024/03/01 03:22:47;;;;;;;48.10;17.93;;;;;;;-145.69;70.74;52337.44;5119924;28;20197;-81
2024/03/01 03:25:14;;;;;;;49.73;17.93;;;;;;;-145.69;70.63;52333.47;5119478;28;20197;-81
2024/03/01 03:27:41;;;;;;;43.17;16.57;;;;;;;-145.69;70.33;52355.28;5119499;27;20296;-81
2024/03/01 03:30:08;;;;;;;51.53;16.47;;;;;;;-145.69;70.91;52371.13;5120016;27;20196;-81
2024/03/01 03:32:36;;;;;;;40.87;15.43;;;;;;;-145.69;70.31;52349.31;5120006;27;20198;-81
2024/03/01 03:35:04;;;;;;;49.83;16.90;;;;;;;-145.69;70.51;52345.38;5119943;28;20657;-82
2024/03/01 03:37:31;;;;;;;52.03;18.07;;;;;;;-145.69;70.18;52341.41;5119552;28;20228;-82
2024/03/01 03:39:58;;;;;;;53.87;16.50;;;;;;;-145.69;70.52;52329.53;5120088;27;20231;-80
2024/03/01 03:42:24;;;;;;;50.37;17.93;;;;;;;-145.69;70.59;52329.53;5119102;28;20201;-82
2024/03/01 03:44:51;;;;;;;49.37;18.60;;;;;;;-145.69;71.01;52357.25;5119441;28;20201;-82
2024/03/01 03:47:17;;;;;;;49.37;18.57;;;;;;;-145.69;70.48;52341.41;5119508;28;20250;-82
2024/03/01 03:49:48;;;;;;;45.40;17.50;;;;;;;-145.69;70.56;52331.50;5119342;28;20231;-82
2024/03/01 03:52:14;;;;;;;44.43;17.13;;;;;;;-145.69;70.66;52337.44;5119326;28;20244;-82
2024/03/01 03:54:41;;;;;;;51.87;19.00;;;;;;;-145.69;70.37;52333.47;5119105;27;20665;-81
2024/03/01 03:57:07;;;;;;;48.03;17.60;;;;;;;-145.69;70.20;52373.09;5119322;28;20209;-82
2024/03/01 03:59:35;;;;;;;53.83;18.13;;;;;;;-145.69;70.28;52365.16;5119056;28;20217;-82
2024/03/01 04:02:01;;;;;;;53.20;18.13;;;;;;;-145.69;70.13;52343.38;5119278;27;20193;-81
2024/03/01 04:04:27;;;;;;;42.50;16.83;;;;;;;-145.69;70.35;52365.16;5119446;28;20250;-82
2024/03/01 04:06:57;;;;;;;43.70;16.33;;;;;;;-145.69;70.21;52325.56;5119315;28;20201;-82
2024/03/01 04:09:24;;;;;;;41.90;17.00;;;;;;;-145.69;70.21;52371.13;5118666;28;20639;-82
2024/03/01 04:11:50;;;;;;;43.90;16.77;;;;;;;-145.69;69.30;52349.31;5119015;28;20193;-82
2024/03/01 04:14:17;;;;;;;45.33;17.70;;;;;;;-145.69;69.37;52341.41;5119218;28;20210;-82
2024/03/01 04:16:43;;;;;;;42.67;16.47;;;;;;;-145.69;69.79;52335.47;5118682;28;20208;-82
2024/03/01 04:19:09;;;;;;;42.83;17.77;;;;;;;-145.69;69.78;52337.44;5118787;28;20197;-82
2024/03/01 04:21:37;;;;;;;47.07;17.53;;;;;;;-145.69;70.18;52339.44;5119094;28;20228;-82
2024/03/01 04:24:09;;;;;;;47.97;17.73;;;;;;;-145.69;70.05;52327.53;5115430;28;20205;-82
2024/03/01 04:26:36;;;;;;;49.07;18.17;;;;;;;-145.69;70.21;52327.53;5116444;28;20207;-82
2024/03/01 04:29:05;;;;;;;43.17;16.00;;;;;;;-145.69;70.38;52349.31;5116092;28;20603;-83
2024/03/01 04:31:32;;;;;;;46.80;17.23;;;;;;;-145.69;70.45;52311.69;5115619;28;20205;-82
2024/03/01 04:33:59;;;;;;;46.40;16.47;;;;;;;-145.69;71.03;52339.44;5115884;28;20205;-81
2024/03/01 04:36:26;;;;;;;49.27;18.40;;;;;;;-145.69;70.63;52317.66;5115267;28;20205;-82
2024/03/01 04:38:52;;;;;;;48.33;17.83;;;;;;;-145.69;70.69;52365.16;5115475;28;20201;-81
2024/03/01 04:41:20;;;;;;;48.03;17.83;;;;;;;-145.69;70.90;52349.31;5115526;28;20221;-82
2024/03/01 04:43:47;;;;;;;49.80;18.77;;;;;;;-145.69;70.92;52369.13;5115753;28;20250;-82
2024/03/01 04:46:14;;;;;;;45.37;15.70;;;;;;;-145.69;70.55;52333.47;5115135;28;20219;-82
2024/03/01 04:48:40;;;;;;;52.80;16.77;;;;;;;-145.69;70.55;52341.41;5115444;28;20197;-81
2024/03/01 04:51:09;;;;;;;53.37;17.13;;;;;;;-145.69;70.23;52341.41;5114960;28;20229;-82
2024/03/01 04:53:36;;;;;;;43.50;15.97;;;;;;;-145.69;70.67;52321.59;5115094;27;20240;-81
2024/03/01 04:56:02;;;;;;;52.80;18.00;;;;;;;-145.69;70.31;52317.66;5115262;28;20284;-81
2024/03/01 04:58:30;;;;;;;44.83;16.40;;;;;;;-145.69;70.54;52349.31;5115336;28;20212;-82
2024/03/01 05:00:59;;;;;;;54.10;17.77;;;;;;;-145.69;70.48;52325.56;5115090;28;20236;-80
2024/03/01 05:03:28;;;;;;;39.47;16.97;;;;;;;-145.69;70.39;52357.25;5115132;28;20291;-82
2024/03/01 05:05:55;;;;;;;40.10;15.13;;;;;;;-145.69;70.08;52339.44;5114939;28;20281;-82
2024/03/01 05:08:21;;;;;;;44.20;17.13;;;;;;;-145.69;69.86;52321.59;5114498;28;20739;-82
2024/03/01 05:10:50;;;;;;;47.27;17.83;;;;;;;-145.69;69.99;52359.22;5113321;28;20244;-82
2024/03/01 05:13:17;;;;;;;52.60;17.70;;;;;;;-145.69;69.96;52333.47;5113686;28;20205;-83
2024/03/01 05:15:44;;;;;;;43.83;16.10;;;;;;;-145.69;69.60;52359.22;5114704;28;20189;-83
2024/03/01 05:18:11;;;;;;;40.00;16.13;;;;;;;-145.69;69.41;52353.28;5114771;28;20202;-83
2024/03/01 05:20:38;;;;;;;49.47;16.93;;;;;;;-145.69;69.36;52329.53;5113511;28;20256;-82
2024/03/01 05:23:04;;;;;;;40.90;15.70;;;;;;;-145.69;69.49;52341.41;5115053;28;20207;-82
2024/03/01 05:25:31;;;;;;;43.70;16.70;;;;;;;-145.69;69.07;52317.66;5114840;28;20233;-81
2024/03/01 05:27:57;;;;;;;46.87;15.80;;;;;;;-145.69;68.97;52299.81;5114573;28;20208;-82
2024/03/01 05:30:24;;;;;;;37.70;16.03;;;;;;;-145.69;69.19;52341.41;5114544;28;20690;-82
2024/03/01 05:32:53;;;;;;;42.43;14.93;;;;;;;-145.69;69.14;52333.47;5114930;28;20282;-82
2024/03/01 05:35:21;;;;;;;40.47;15.97;;;;;;;-145.69;69.01;52321.59;5113845;28;20196;-81
2024/03/01 05:37:47;;;;;;;54.17;16.27;;;;;;;-145.69;68.89;52343.38;5114507;28;20598;-81
2024/03/01 05:40:16;;;;;;;37.03;15.07;;;;;;;-145.69;68.89;52339.44;5114483;28;20266;-81
2024/03/01 05:42:43;;;;;;;42.40;16.07;;;;;;;-145.69;68.83;52339.44;5114241;28;20200;-81
2024/03/01 05:45:11;;;;;;;46.33;16.50;;;;;;;-145.69;68.91;52355.28;5114472;28;20198;-82
2024/03/01 05:47:38;;;;;;;48.20;16.97;;;;;;;-145.69;68.57;52333.47;5114125;28;20598;-81
2024/03/01 05:50:07;;;;;;;34.50;13.67;;;;;;;-145.69;68.79;52321.59;5114233;28;20201;-81
2024/03/01 05:52:34;;;;;;;35.00;15.07;;;;;;;-145.69;68.43;52309.72;5114150;28;20718;-81
2024/03/01 05:55:01;;;;;;;41.93;15.10;;;;;;;-145.69;68.43;52345.38;5114297;28;20247;-81
2024/03/01 05:57:27;;;;;;;46.70;15.77;;;;;;;-145.69;68.97;52347.34;5113984;28;20620;-81
2024/03/01 05:59:54;;;;;;;40.13;15.17;;;;;;;-145.69;68.29;52341.41;5114191;28;20201;-81
2024/03/01 06:02:22;;;;;;;42.60;15.07;;;;;;;-145.69;68.58;52323.59;5114347;28;20209;-81
2024/03/01 06:04:48;;;;;;;41.33;15.53;;;;;;;-145.69;68.99;52337.44;5113863;28;20675;-81
2024/03/01 06:07:17;;;;;;;43.47;15.77;;;;;;;-145.69;68.92;52329.53;5095836;28;20284;-81
2024/03/01 06:09:43;;;;;;;40.47;14.63;;;;;;;-145.69;68.46;52363.19;5114017;28;20205;-82
2024/03/01 06:12:10;;;;;;;33.43;12.60;;;;;;;-145.69;68.64;52341.41;5114306;27;20197;-81
2024/03/01 06:14:37;;;;;;;40.63;14.47;;;;;;;-145.69;68.92;52357.25;5112374;28;20198;-83
2024/03/01 06:17:04;;;;;;;39.10;14.97;;;;;;;-145.69;68.67;52329.53;5113311;28;20660;-82
2024/03/01 06:19:31;;;;;;;37.53;14.10;;;;;;;-145.69;68.14;52323.59;5113874;28;20209;-82
2024/03/01 06:21:58;;;;;;;34.20;14.53;;;;;;;-145.69;68.66;52367.16;5113323;28;20228;-82
2024/03/01 06:24:26;;;;;;;36.17;14.13;;;;;;;-145.69;68.42;52341.41;5113810;28;20201;-80
2024/03/01 06:26:54;;;;;;;30.93;11.70;;;;;;;-145.69;68.38;52359.22;5113638;28;20198;-81
2024/03/01 06:29:21;;;;;;;32.60;12.37;;;;;;;-145.69;68.16;52309.72;5113848;28;20204;-82
2024/03/01 06:31:47;;;;;;;28.07;11.83;;;;;;;-145.69;68.60;52361.22;5113532;28;20592;-82
2024/03/01 06:34:14;;;;;;;34.47;13.03;;;;;;;-145.69;68.25;52327.53;5113369;28;20326;-81
2024/03/01 06:36:40;;;;;;;35.87;13.57;;;;;;;-145.69;68.37;52297.84;5113400;28;20258;-81
2024/03/01 06:39:08;;;;;;;34.47;12.90;;;;;;;-145.69;68.05;52369.13;5112982;28;20198;-82
2024/03/01 06:41:36;;;;;;;33.27;12.50;;;;;;;-145.69;68.25;52327.53;5112304;27;20784;-81
2024/03/01 06:44:03;;;;;;;33.40;14.00;;;;;;;-145.69;67.87;52349.31;5113418;28;20230;-83
2024/03/01 06:46:29;;;;;;;33.00;12.43;;;;;;;-145.69;67.92;52345.38;5112831;28;20194;-81
2024/03/01 06:48:56;;;;;;;26.40;11.37;;;;;;;-145.69;67.80;52345.38;5112972;28;20560;-81
2024/03/01 06:51:23;;;;;;;21.37;9.57;;;;;;;-145.69;67.17;52305.75;5112567;28;20229;-80
2024/03/01 06:53:49;;;;;;;20.80;9.47;;;;;;;-145.69;67.42;52341.41;5112976;28;20250;-81
2024/03/01 06:56:16;;;;;;;27.10;10.77;;;;;;;-145.69;67.30;52303.78;5113310;28;20216;-81
2024/03/01 06:58:44;;;;;;;27.87;11.03;;;;;;;-145.69;67.83;52299.81;5113245;28;20197;-81
2024/03/01 07:01:10;;;;;;;26.90;10.50;;;;;;;-145.69;68.17;52357.25;5112816;28;20221;-82
2024/03/01 07:03:37;;;;;;;22.23;10.17;;;;;;;-145.69;67.87;52309.72;5113010;28;20656;-81
2024/03/01 07:06:04;;;;;;;21.00;8.73;;;;;;;-145.69;67.49;52315.66;5113139;28;20204;-81
2024/03/01 07:08:30;;;;;;;15.23;6.87;;;;;;;-145.69;67.48;52305.75;5113012;28;20205;-81
2024/03/01 07:10:58;;;;;;;18.57;7.77;;;;;;;-145.69;67.25;52321.59;5112569;28;20204;-82
2024/03/01 07:13:25;;;;;;;22.80;8.93;;;;;;;-145.69;67.29;52317.66;5113032;28;20194;-82
2024/03/01 07:15:53;;;;;;;27.63;9.63;;;;;;;-145.69;67.05;52325.56;5112948;28;20197;-82
2024/03/01 07:18:19;;;;;;;20.70;9.30;;;;;;;-145.69;67.60;52299.81;5113105;28;20525;-83
2024/03/01 07:20:46;;;;;;;15.70;7.23;;;;;;;-145.69;67.25;52349.31;5112502;28;20238;-82
2024/03/01 07:23:12;;;;;;;19.33;8.00;;;;;;;-145.69;67.33;52317.66;5112383;28;20190;-82
2024/03/01 07:25:39;;;;;;;16.57;7.17;;;;;;;-145.69;67.29;52309.72;5112440;28;20655;-82
2024/03/01 07:28:06;;;;;;;19.20;7.90;;;;;;;-145.69;66.96;52313.69;5112497;28;20590;-82
2024/03/01 07:30:32;;;;;;;20.80;7.70;;;;;;;-145.69;67.45;52301.81;5112423;27;20205;-81
2024/03/01 07:33:00;;;;;;;16.83;6.50;;;;;;;-145.69;66.73;52305.75;5112644;28;20251;-81
2024/03/01 07:35:27;;;;;;;14.80;6.20;;;;;;;-145.69;66.55;52293.88;5112704;28;20241;-82
2024/03/01 07:37:53;;;;;;;14.97;6.40;;;;;;;-145.69;66.46;52315.66;5113126;28;20201;-82
2024/03/01 07:40:20;;;;;;;16.10;6.40;;;;;;;-145.69;66.30;52331.50;5113022;28;20224;-82
2024/03/01 07:42:46;;;;;;;13.03;5.23;;;;;;;-145.69;66.87;52285.97;5112652;28;20198;-81
2024/03/01 07:45:13;;;;;;;10.90;5.53;;;;;;;-145.69;66.33;52297.84;5112110;28;20830;-82
2024/03/01 07:47:42;;;;;;;15.03;6.40;;;;;;;-145.69;66.22;52309.72;5112636;28;20204;-82
2024/03/01 07:50:10;;;;;;;23.03;9.13;;;;;;;-145.69;66.66;52283.97;5112259;28;20201;-83
2024/03/01 07:52:37;;;;;;;19.37;8.70;;;;;;;-145.69;66.55;52309.72;5111983;28;20225;-82
2024/03/01 07:55:05;;;;;;;25.63;9.60;;;;;;;-145.69;66.41;52283.97;5112788;28;20194;-82
2024/03/01 07:57:31;;;;;;;24.30;9.23;;;;;;;-145.69;66.55;52309.72;5113290;28;20258;-83
2024/03/01 08:00:01;;;;;;;21.23;9.30;;;;;;;-145.69;66.22;52307.75;5116254;28;20547;-82
2024/03/01 08:02:27;;;;;;;25.70;9.63;;;;;;;-145.69;66.13;52317.66;5095959;28;20325;-83
2024/03/01 08:04:53;;;;;;;27.50;10.77;;;;;;;-145.69;66.37;52285.97;5095787;28;20198;-83
2024/03/01 08:07:21;;;;;;;24.53;9.57;;;;;;;-145.69;66.48;52343.38;5095948;28;20202;-82
2024/03/01 08:09:49;;;;;;;25.40;10.63;;;;;;;-145.69;66.31;52276.06;5096241;28;20526;-84
2024/03/01 08:12:18;;;;;;;24.40;10.30;;;;;;;-145.69;66.23;52319.63;5106729;28;20670;-82
2024/03/01 08:14:44;;;;;;;20.40;9.53;;;;;;;-145.69;66.65;52317.66;5116440;28;20194;-82
2024/03/01 08:17:12;;;;;;;19.47;8.30;;;;;;;-145.69;66.75;52301.81;5117034;28;20193;-83
2024/03/01 08:19:44;;;;;;;19.53;8.57;;;;;;;-145.69;66.42;52278.03;5117327;28;20693;-83
2024/03/01 08:22:14;;;;;;;21.13;8.63;;;;;;;-145.69;66.68;52301.81;5116701;28;20247;-83
2024/03/01 08:24:44;;;;;;;21.40;9.57;;;;;;;-145.69;66.31;52289.91;5116530;28;20254;-82
2024/03/01 08:27:12;;;;;;;16.70;8.10;;;;;;;-145.69;66.06;52289.91;5116645;28;20665;-83
2024/03/01 08:29:41;;;;;;;16.03;7.63;;;;;;;-145.69;66.31;52293.88;5116318;28;20209;-83
2024/03/01 08:32:24;;;;;;;19.57;8.17;;;;;;;-145.69;65.68;52270.13;5116345;28;20193;-83
2024/03/01 08:34:55;;;;;;;17.40;8.37;;;;;;;-145.69;65.29;52283.97;5116402;28;20655;-82
2024/03/01 08:37:24;;;;;;;17.10;8.60;;;;;;;-145.69;65.04;52293.88;5116131;28;20199;-82
2024/03/01 08:39:54;;;;;;;19.90;8.13;;;;;;;-145.69;64.94;52297.84;5116070;28;20722;-82
2024/03/01 08:42:20;;;;;;;21.93;8.23;;;;;;;-145.69;64.83;52278.03;5115668;28;20270;-82
2024/03/01 08:44:53;;;;;;;15.43;7.87;;;;;;;-145.69;64.75;52270.13;5115883;28;20668;-82
2024/03/01 08:47:32;;;;;;;12.73;6.87;;;;;;;-145.69;65.04;52282.00;5115813;28;20297;-83
2024/03/01 08:50:38;;;;;;;15.43;7.03;;;;;;;-145.69;64.37;52309.72;5117154;27;20208;-83
2024/03/01 08:53:48;;;;;;;13.67;6.33;;;;;;;-145.69;63.91;52289.91;5116026;28;20205;-85
2024/03/01 08:56:18;;;;;;;17.57;6.60;;;;;;;-145.69;64.11;52313.69;5115809;28;20198;-85
2024/03/01 08:58:47;;;;;;;11.80;5.57;;;;;;;-145.69;63.09;52299.81;5115444;27;20194;-84
2024/03/01 09:01:40;;;;;;;12.33;5.57;;;;;;;-145.69;62.49;52283.97;5115277;28;20221;-82
2024/03/01 09:04:12;;;;;;;11.33;5.43;;;;;;;-145.69;62.84;52270.13;5113043;27;20198;-83
2024/03/01 09:06:39;;;;;;;8.83;5.17;;;;;;;-145.69;62.42;52291.91;5115281;28;20647;-82
2024/03/01 09:09:06;;;;;;;11.87;5.33;;;;;;;-145.69;62.13;52262.19;5113402;28;20198;-83
2024/03/01 09:11:34;;;;;;;11.10;5.60;;;;;;;-145.69;61.89;52260.22;5115667;27;20217;-83
2024/03/01 09:14:01;;;;;;;9.85;4.90;;;;;;;-145.69;62.15;52274.06;5114454;28;20679;-82
2024/03/01 09:16:28;;;;;;;12.93;6.13;;;;;;;-145.69;61.23;52270.13;5112569;27;20201;-81
2024/03/01 09:18:55;;;;;;;10.85;5.55;;;;;;;-145.69;61.14;52297.84;5114066;27;20254;-83
2024/03/01 09:21:44;;;;;;;10.30;5.25;;;;;;;-145.69;59.82;52254.28;5114784;28;20249;-83
2024/03/01 09:24:13;;;;;;;12.65;5.55;;;;;;;-145.69;59.60;52238.44;5116155;27;20715;-83
2024/03/01 09:26:41;;;;;;;12.37;5.37;;;;;;;-145.69;59.31;52266.16;5116335;27;20209;-83
2024/03/01 09:29:08;;;;;;;11.57;4.55;;;;;;;-145.69;59.09;52266.16;5114799;28;20192;-83
2024/03/01 09:31:35;;;;;;;10.50;5.18;;;;;;;-145.69;59.18;52280.00;5114687;28;20594;-83
2024/03/01 09:34:06;;;;;;;8.90;4.88;;;;;;;-145.69;58.43;52250.31;5114363;28;20624;-83
2024/03/01 09:36:35;;;;;;;8.15;4.40;;;;;;;-145.69;58.01;52278.03;5114645;28;20199;-82
2024/03/01 09:39:05;;;;;;;8.73;4.30;;;;;;;-145.69;57.87;52270.13;5114529;28;20197;-83
2024/03/01 09:41:49;;;;;;;6.80;3.78;;;;;;;-145.69;57.20;52266.16;5114340;28;20255;-83
2024/03/01 09:44:27;;;;;;;8.15;4.30;;;;;;;-145.69;57.23;52260.22;5109509;28;20640;-83
2024/03/01 09:47:04;;;;;;;8.80;4.45;;;;;;;-145.69;56.24;52250.31;5114201;28;20675;-84
2024/03/01 09:49:41;;;;;;;10.73;4.07;;;;;;;-145.69;56.28;52282.00;5114328;28;20212;-83
2024/03/01 09:52:15;;;;;;;9.57;4.38;;;;;;;-145.69;55.90;52250.31;5114069;28;20300;-83
2024/03/01 09:54:46;;;;;;;6.57;3.67;;;;;;;-145.69;55.82;52260.22;5114041;28;20194;-83
2024/03/01 09:57:21;;;;;;;7.95;3.92;;;;;;;-145.69;55.16;52274.06;5114227;28;20280;-82
2024/03/01 09:59:52;;;;;;;8.35;4.38;;;;;;;-145.69;55.23;52254.28;5113879;28;20201;-81
2024/03/01 10:02:31;;;;;;;6.50;3.75;;;;;;;-145.69;54.53;52262.19;5113941;28;20576;-83
2024/03/01 10:05:23;;;;;;;9.07;4.22;;;;;;;-145.69;53.81;52274.06;5114106;28;20209;-82
2024/03/01 10:07:57;;;;;;;8.93;4.05;;;;;;;-145.69;54.86;52244.38;5113625;28;20278;-82
2024/03/01 10:10:38;;;;;;;13.27;7.85;;;;;;;-145.69;54.07;52252.28;5113928;28;20199;-84
2024/03/01 10:13:15;;;;;;;8.32;5.00;;;;;;;-145.69;54.47;52250.31;5114532;27;20197;-82
2024/03/01 10:15:52;;;;;;;7.05;4.38;;;;;;;-145.69;53.87;52250.31;5113924;28;20659;-83
2024/03/01 10:18:36;;;;;;;8.02;4.05;;;;;;;-145.69;53.12;52242.38;5114059;28;20292;-82
2024/03/01 10:21:15;;;;;;;7.05;4.65;;;;;;;-145.69;53.05;52268.13;5112820;28;20209;-82
2024/03/01 10:23:53;;;;;;;8.35;4.28;;;;;;;-145.69;53.77;52208.72;5113972;28;20204;-83
2024/03/01 10:26:28;;;;;;;7.50;4.05;;;;;;;-145.69;53.35;52250.31;5113752;28;20226;-83
2024/03/01 10:29:16;;;;;;;8.50;4.20;;;;;;;-145.69;53.38;52232.50;5113218;28;20675;-83
2024/03/01 10:31:57;;;;;;;8.55;4.78;;;;;;;-145.69;53.80;52264.16;5113788;28;20567;-83
2024/03/01 10:34:32;;;;;;;10.95;3.97;;;;;;;-145.69;53.12;52254.28;5113748;27;20211;-83
2024/03/01 10:37:09;;;;;;;7.07;4.13;;;;;;;-145.69;52.55;52210.72;5113618;28;20203;-83
2024/03/01 10:39:48;;;;;;;8.25;4.63;;;;;;;-145.69;53.01;52210.72;5113529;28;20671;-83
2024/03/01 10:42:20;;;;;;;8.65;4.35;;;;;;;-145.69;52.60;52222.59;5112984;28;20567;-83
2024/03/01 10:44:57;;;;;;;9.18;5.05;;;;;;;-145.69;52.72;52248.34;5112901;28;20201;-83
2024/03/01 10:47:24;;;;;;;8.60;5.38;;;;;;;-145.69;51.62;52216.66;5112850;28;20203;-84
2024/03/01 10:50:07;;;;;;;11.30;4.60;;;;;;;-145.69;51.41;52238.44;5113079;28;20627;-83
2024/03/01 10:52:42;;;;;;;7.20;4.13;;;;;;;-145.69;52.30;52196.84;5112661;28;20233;-83
2024/03/01 10:55:13;;;;;;;9.05;4.47;;;;;;;-145.69;52.14;52236.44;5113456;27;20258;-83
2024/03/01 10:57:47;;;;;;;7.82;4.97;;;;;;;-145.69;51.23;52220.59;5114350;28;20194;-82
2024/03/01 11:00:19;;;;;;;10.57;5.57;;;;;;;-145.69;51.99;52194.88;5115765;28;20589;-82
2024/03/01 11:02:51;;;;;;;10.60;5.63;;;;;;;-145.69;50.35;52206.75;5113589;28;20221;-82
2024/03/01 11:05:26;;;;;;;10.05;5.78;;;;;;;-145.69;50.59;52216.66;5112438;28;20207;-82
2024/03/01 11:08:00;;;;;;;7.80;4.30;;;;;;;-145.69;49.63;52200.81;5115457;27;20200;-82
2024/03/01 11:10:35;;;;;;;8.23;4.55;;;;;;;-145.69;48.94;52194.88;5114190;27;20230;-82
2024/03/01 11:13:06;;;;;;;8.40;4.32;;;;;;;-145.69;49.28;52198.81;5113687;28;20659;-82